sensor_id;sensor_type;location;lat;lon;timestamp;P1;durP1;ratioP1;P2;durP2;ratioP2
44366;SDS011;30086;57.660;12.000;2023-07-31T00:01:55;4.13;;;1.50;;
44366;SDS011;30086;57.660;12.000;2023-07-31T00:04:21;4.63;;;1.70;;
44366;SDS011;30086;57.660;12.000;2023-07-31T00:06:47;6.13;;;1.80;;
44366;SDS011;30086;57.660;12.000;2023-07-31T00:09:13;4.03;;;1.70;;
44366;SDS011;30086;57.660;12.000;2023-07-31T00:11:39;4.13;;;1.83;;
44366;SDS011;30086;57.660;12.000;2023-07-31T00:14:05;4.55;;;1.80;;
44366;SDS011;30086;57.660;12.000;2023-07-31T00:16:31;3.42;;;1.88;;
44366;SDS011;30086;57.660;12.000;2023-07-31T00:18:58;3.17;;;1.90;;
44366;SDS011;30086;57.660;12.000;2023-07-31T00:21:24;5.07;;;2.13;;
44366;SDS011;30086;57.660;12.000;2023-07-31T00:23:50;5.82;;;1.73;;
44366;SDS011;30086;57.660;12.000;2023-07-31T00:26:16;5.47;;;1.50;;
44366;SDS011;30086;57.660;12.000;2023-07-31T00:28:42;2.58;;;1.63;;
44366;SDS011;30086;57.660;12.000;2023-07-31T00:31:08;5.70;;;1.92;;
44366;SDS011;30086;57.660;12.000;2023-07-31T00:33:34;5.55;;;2.00;;
44366;SDS011;30086;57.660;12.000;2023-07-31T00:36:01;3.25;;;1.73;;
44366;SDS011;30086;57.660;12.000;2023-07-31T00:38:27;3.92;;;1.92;;
44366;SDS011;30086;57.660;12.000;2023-07-31T00:40:53;2.13;;;1.63;;
44366;SDS011;30086;57.660;12.000;2023-07-31T00:43:19;5.95;;;1.90;;
44366;SDS011;30086;57.660;12.000;2023-07-31T00:45:46;2.60;;;1.75;;
44366;SDS011;30086;57.660;12.000;2023-07-31T00:48:12;5.85;;;1.98;;
44366;SDS011;30086;57.660;12.000;2023-07-31T00:50:40;1.80;;;1.45;;
44366;SDS011;30086;57.660;12.000;2023-07-31T00:53:07;3.70;;;1.95;;
44366;SDS011;30086;57.660;12.000;2023-07-31T00:55:33;3.90;;;1.70;;
44366;SDS011;30086;57.660;12.000;2023-07-31T00:57:59;2.70;;;1.70;;
44366;SDS011;30086;57.660;12.000;2023-07-31T01:00:25;4.57;;;1.63;;
44366;SDS011;30086;57.660;12.000;2023-07-31T01:02:51;4.32;;;1.75;;
44366;SDS011;30086;57.660;12.000;2023-07-31T01:05:19;5.63;;;1.80;;
44366;SDS011;30086;57.660;12.000;2023-07-31T01:07:52;6.63;;;2.00;;
44366;SDS011;30086;57.660;12.000;2023-07-31T01:10:30;3.78;;;1.80;;
44366;SDS011;30086;57.660;12.000;2023-07-31T01:12:59;2.15;;;1.67;;
44366;SDS011;30086;57.660;12.000;2023-07-31T01:15:26;3.47;;;1.70;;
44366;SDS011;30086;57.660;12.000;2023-07-31T01:17:52;5.85;;;2.10;;
44366;SDS011;30086;57.660;12.000;2023-07-31T01:20:22;6.05;;;2.28;;
44366;SDS011;30086;57.660;12.000;2023-07-31T01:23:05;3.60;;;2.10;;
44366;SDS011;30086;57.660;12.000;2023-07-31T01:28:27;3.40;;;2.08;;
44366;SDS011;30086;57.660;12.000;2023-07-31T01:30:56;5.45;;;2.28;;
44366;SDS011;30086;57.660;12.000;2023-07-31T01:33:24;5.47;;;2.22;;
44366;SDS011;30086;57.660;12.000;2023-07-31T01:35:50;3.85;;;1.90;;
44366;SDS011;30086;57.660;12.000;2023-07-31T01:38:20;6.57;;;2.00;;
44366;SDS011;30086;57.660;12.000;2023-07-31T01:40:50;5.78;;;2.47;;
44366;SDS011;30086;57.660;12.000;2023-07-31T01:43:17;4.63;;;1.70;;
44366;SDS011;30086;57.660;12.000;2023-07-31T01:45:43;3.47;;;1.67;;
44366;SDS011;30086;57.660;12.000;2023-07-31T01:48:10;8.05;;;1.70;;
44366;SDS011;30086;57.660;12.000;2023-07-31T01:50:36;3.72;;;1.80;;
44366;SDS011;30086;57.660;12.000;2023-07-31T01:53:02;4.05;;;1.60;;
44366;SDS011;30086;57.660;12.000;2023-07-31T01:55:28;3.80;;;1.60;;
44366;SDS011;30086;57.660;12.000;2023-07-31T01:57:54;4.85;;;1.90;;
44366;SDS011;30086;57.660;12.000;2023-07-31T02:00:20;2.55;;;1.55;;
44366;SDS011;30086;57.660;12.000;2023-07-31T02:02:46;3.05;;;1.88;;
44366;SDS011;30086;57.660;12.000;2023-07-31T02:05:12;6.88;;;2.05;;
44366;SDS011;30086;57.660;12.000;2023-07-31T02:07:38;3.90;;;1.65;;
44366;SDS011;30086;57.660;12.000;2023-07-31T02:10:04;4.70;;;1.85;;
44366;SDS011;30086;57.660;12.000;2023-07-31T02:12:31;7.30;;;2.03;;
44366;SDS011;30086;57.660;12.000;2023-07-31T02:14:58;3.80;;;1.75;;
44366;SDS011;30086;57.660;12.000;2023-07-31T02:17:24;4.15;;;2.03;;
44366;SDS011;30086;57.660;12.000;2023-07-31T02:19:50;4.82;;;1.73;;
44366;SDS011;30086;57.660;12.000;2023-07-31T02:22:16;5.07;;;1.85;;
44366;SDS011;30086;57.660;12.000;2023-07-31T02:24:43;7.82;;;1.85;;
44366;SDS011;30086;57.660;12.000;2023-07-31T02:27:09;4.18;;;2.28;;
44366;SDS011;30086;57.660;12.000;2023-07-31T02:29:35;5.13;;;2.45;;
44366;SDS011;30086;57.660;12.000;2023-07-31T02:32:01;3.08;;;1.60;;
44366;SDS011;30086;57.660;12.000;2023-07-31T02:34:27;5.43;;;1.98;;
44366;SDS011;30086;57.660;12.000;2023-07-31T02:36:53;3.75;;;2.00;;
44366;SDS011;30086;57.660;12.000;2023-07-31T02:39:19;8.20;;;2.22;;
44366;SDS011;30086;57.660;12.000;2023-07-31T02:41:45;4.88;;;2.10;;
44366;SDS011;30086;57.660;12.000;2023-07-31T02:44:11;6.40;;;2.25;;
44366;SDS011;30086;57.660;12.000;2023-07-31T02:46:39;7.80;;;2.60;;
44366;SDS011;30086;57.660;12.000;2023-07-31T02:49:05;6.05;;;2.30;;
44366;SDS011;30086;57.660;12.000;2023-07-31T02:51:31;6.60;;;2.30;;
44366;SDS011;30086;57.660;12.000;2023-07-31T02:53:57;7.10;;;2.22;;
44366;SDS011;30086;57.660;12.000;2023-07-31T02:56:23;8.40;;;2.35;;
44366;SDS011;30086;57.660;12.000;2023-07-31T02:58:50;16.05;;;2.95;;
44366;SDS011;30086;57.660;12.000;2023-07-31T03:01:16;5.28;;;2.28;;
44366;SDS011;30086;57.660;12.000;2023-07-31T03:03:42;4.53;;;2.10;;
44366;SDS011;30086;57.660;12.000;2023-07-31T03:06:08;7.25;;;2.50;;
44366;SDS011;30086;57.660;12.000;2023-07-31T03:08:35;5.40;;;2.35;;
44366;SDS011;30086;57.660;12.000;2023-07-31T03:11:01;4.10;;;2.10;;
44366;SDS011;30086;57.660;12.000;2023-07-31T03:13:27;7.78;;;2.50;;
44366;SDS011;30086;57.660;12.000;2023-07-31T03:15:53;4.43;;;2.17;;
44366;SDS011;30086;57.660;12.000;2023-07-31T03:18:19;6.43;;;2.30;;
44366;SDS011;30086;57.660;12.000;2023-07-31T03:20:46;5.32;;;2.10;;
44366;SDS011;30086;57.660;12.000;2023-07-31T03:23:12;3.42;;;2.10;;
44366;SDS011;30086;57.660;12.000;2023-07-31T03:25:41;6.45;;;2.80;;
44366;SDS011;30086;57.660;12.000;2023-07-31T03:28:07;8.65;;;2.58;;
44366;SDS011;30086;57.660;12.000;2023-07-31T03:30:35;3.67;;;2.15;;
44366;SDS011;30086;57.660;12.000;2023-07-31T03:33:03;5.57;;;2.45;;
44366;SDS011;30086;57.660;12.000;2023-07-31T03:35:29;8.05;;;2.78;;
44366;SDS011;30086;57.660;12.000;2023-07-31T03:37:55;6.82;;;2.55;;
44366;SDS011;30086;57.660;12.000;2023-07-31T03:40:22;6.00;;;2.65;;
44366;SDS011;30086;57.660;12.000;2023-07-31T03:42:48;8.43;;;3.00;;
44366;SDS011;30086;57.660;12.000;2023-07-31T03:45:14;6.05;;;2.63;;
44366;SDS011;30086;57.660;12.000;2023-07-31T03:47:40;6.38;;;2.30;;
44366;SDS011;30086;57.660;12.000;2023-07-31T03:50:07;7.05;;;2.90;;
44366;SDS011;30086;57.660;12.000;2023-07-31T03:52:33;8.98;;;2.28;;
44366;SDS011;30086;57.660;12.000;2023-07-31T03:54:59;11.27;;;2.90;;
44366;SDS011;30086;57.660;12.000;2023-07-31T03:57:25;5.65;;;2.63;;
44366;SDS011;30086;57.660;12.000;2023-07-31T03:59:51;5.07;;;2.78;;
44366;SDS011;30086;57.660;12.000;2023-07-31T04:02:17;7.15;;;2.75;;
44366;SDS011;30086;57.660;12.000;2023-07-31T04:04:43;7.78;;;2.47;;
44366;SDS011;30086;57.660;12.000;2023-07-31T04:07:09;7.70;;;3.22;;
44366;SDS011;30086;57.660;12.000;2023-07-31T04:09:35;7.70;;;2.88;;
44366;SDS011;30086;57.660;12.000;2023-07-31T04:12:02;8.82;;;2.95;;
44366;SDS011;30086;57.660;12.000;2023-07-31T04:14:28;8.38;;;2.90;;
44366;SDS011;30086;57.660;12.000;2023-07-31T04:17:02;9.32;;;2.83;;
44366;SDS011;30086;57.660;12.000;2023-07-31T04:19:28;5.68;;;3.10;;
44366;SDS011;30086;57.660;12.000;2023-07-31T04:21:54;11.32;;;3.20;;
44366;SDS011;30086;57.660;12.000;2023-07-31T04:24:20;12.57;;;3.45;;
44366;SDS011;30086;57.660;12.000;2023-07-31T04:26:49;9.30;;;3.40;;
44366;SDS011;30086;57.660;12.000;2023-07-31T04:29:16;6.35;;;2.63;;
44366;SDS011;30086;57.660;12.000;2023-07-31T04:31:42;8.57;;;3.00;;
44366;SDS011;30086;57.660;12.000;2023-07-31T04:34:08;10.13;;;3.35;;
44366;SDS011;30086;57.660;12.000;2023-07-31T04:36:36;10.98;;;3.13;;
44366;SDS011;30086;57.660;12.000;2023-07-31T04:39:02;7.15;;;2.72;;
44366;SDS011;30086;57.660;12.000;2023-07-31T04:41:29;8.50;;;3.10;;
44366;SDS011;30086;57.660;12.000;2023-07-31T04:43:55;16.38;;;3.03;;
44366;SDS011;30086;57.660;12.000;2023-07-31T04:46:21;8.50;;;3.17;;
44366;SDS011;30086;57.660;12.000;2023-07-31T04:48:47;8.27;;;2.90;;
44366;SDS011;30086;57.660;12.000;2023-07-31T04:51:13;10.57;;;3.08;;
44366;SDS011;30086;57.660;12.000;2023-07-31T04:53:39;7.00;;;2.80;;
44366;SDS011;30086;57.660;12.000;2023-07-31T04:56:05;11.57;;;2.90;;
44366;SDS011;30086;57.660;12.000;2023-07-31T04:58:31;10.63;;;3.15;;
44366;SDS011;30086;57.660;12.000;2023-07-31T05:00:57;6.47;;;3.00;;
44366;SDS011;30086;57.660;12.000;2023-07-31T05:03:25;9.63;;;3.30;;
44366;SDS011;30086;57.660;12.000;2023-07-31T05:05:51;9.07;;;3.17;;
44366;SDS011;30086;57.660;12.000;2023-07-31T05:08:17;10.18;;;2.83;;
44366;SDS011;30086;57.660;12.000;2023-07-31T05:10:43;8.57;;;3.35;;
44366;SDS011;30086;57.660;12.000;2023-07-31T05:13:09;12.65;;;2.97;;
44366;SDS011;30086;57.660;12.000;2023-07-31T05:15:35;6.47;;;2.80;;
44366;SDS011;30086;57.660;12.000;2023-07-31T05:18:01;12.25;;;3.10;;
44366;SDS011;30086;57.660;12.000;2023-07-31T05:20:27;9.85;;;2.70;;
44366;SDS011;30086;57.660;12.000;2023-07-31T05:22:53;8.27;;;3.47;;
44366;SDS011;30086;57.660;12.000;2023-07-31T05:25:19;9.55;;;2.53;;
44366;SDS011;30086;57.660;12.000;2023-07-31T05:27:45;8.75;;;2.50;;
44366;SDS011;30086;57.660;12.000;2023-07-31T05:30:11;7.75;;;2.80;;
44366;SDS011;30086;57.660;12.000;2023-07-31T05:32:38;9.38;;;2.50;;
44366;SDS011;30086;57.660;12.000;2023-07-31T05:35:04;8.77;;;2.80;;
44366;SDS011;30086;57.660;12.000;2023-07-31T05:37:30;11.18;;;2.90;;
44366;SDS011;30086;57.660;12.000;2023-07-31T05:39:56;8.60;;;2.90;;
44366;SDS011;30086;57.660;12.000;2023-07-31T05:42:23;10.70;;;2.92;;
44366;SDS011;30086;57.660;12.000;2023-07-31T05:44:49;14.15;;;2.67;;
44366;SDS011;30086;57.660;12.000;2023-07-31T05:47:15;8.93;;;2.70;;
44366;SDS011;30086;57.660;12.000;2023-07-31T05:49:42;9.60;;;2.63;;
44366;SDS011;30086;57.660;12.000;2023-07-31T05:52:08;7.00;;;2.65;;
44366;SDS011;30086;57.660;12.000;2023-07-31T05:54:34;6.75;;;2.63;;
44366;SDS011;30086;57.660;12.000;2023-07-31T05:57:00;10.70;;;2.50;;
44366;SDS011;30086;57.660;12.000;2023-07-31T05:59:26;10.73;;;2.83;;
44366;SDS011;30086;57.660;12.000;2023-07-31T06:01:53;7.85;;;2.53;;
44366;SDS011;30086;57.660;12.000;2023-07-31T06:04:19;9.80;;;2.65;;
44366;SDS011;30086;57.660;12.000;2023-07-31T06:06:45;8.93;;;2.00;;
44366;SDS011;30086;57.660;12.000;2023-07-31T06:09:11;8.65;;;2.35;;
44366;SDS011;30086;57.660;12.000;2023-07-31T06:11:39;11.27;;;2.83;;
44366;SDS011;30086;57.660;12.000;2023-07-31T06:14:05;6.28;;;2.08;;
44366;SDS011;30086;57.660;12.000;2023-07-31T06:16:31;9.75;;;2.22;;
44366;SDS011;30086;57.660;12.000;2023-07-31T06:18:57;10.52;;;2.20;;
44366;SDS011;30086;57.660;12.000;2023-07-31T06:21:43;11.75;;;2.35;;
44366;SDS011;30086;57.660;12.000;2023-07-31T06:24:15;10.60;;;2.97;;
44366;SDS011;30086;57.660;12.000;2023-07-31T06:26:45;10.13;;;2.63;;
44366;SDS011;30086;57.660;12.000;2023-07-31T06:29:13;8.35;;;2.30;;
44366;SDS011;30086;57.660;12.000;2023-07-31T06:31:40;10.73;;;2.63;;
44366;SDS011;30086;57.660;12.000;2023-07-31T06:34:07;9.27;;;2.50;;
44366;SDS011;30086;57.660;12.000;2023-07-31T06:36:36;10.10;;;2.72;;
44366;SDS011;30086;57.660;12.000;2023-07-31T06:39:23;8.35;;;2.70;;
44366;SDS011;30086;57.660;12.000;2023-07-31T06:41:49;9.57;;;2.58;;
44366;SDS011;30086;57.660;12.000;2023-07-31T06:44:16;5.32;;;2.17;;
44366;SDS011;30086;57.660;12.000;2023-07-31T06:46:42;6.68;;;2.45;;
44366;SDS011;30086;57.660;12.000;2023-07-31T06:49:08;6.55;;;2.70;;
44366;SDS011;30086;57.660;12.000;2023-07-31T06:51:34;13.13;;;3.75;;
44366;SDS011;30086;57.660;12.000;2023-07-31T06:54:01;22.60;;;3.58;;
44366;SDS011;30086;57.660;12.000;2023-07-31T06:56:27;10.18;;;3.17;;
44366;SDS011;30086;57.660;12.000;2023-07-31T06:58:53;13.95;;;3.35;;
44366;SDS011;30086;57.660;12.000;2023-07-31T07:01:19;11.40;;;3.80;;
44366;SDS011;30086;57.660;12.000;2023-07-31T07:03:45;14.80;;;3.40;;
44366;SDS011;30086;57.660;12.000;2023-07-31T07:06:11;16.45;;;3.70;;
44366;SDS011;30086;57.660;12.000;2023-07-31T07:08:37;13.10;;;3.65;;
44366;SDS011;30086;57.660;12.000;2023-07-31T07:11:03;9.60;;;3.28;;
44366;SDS011;30086;57.660;12.000;2023-07-31T07:13:29;8.75;;;3.10;;
44366;SDS011;30086;57.660;12.000;2023-07-31T07:15:55;9.43;;;3.85;;
44366;SDS011;30086;57.660;12.000;2023-07-31T07:18:21;11.45;;;3.15;;
44366;SDS011;30086;57.660;12.000;2023-07-31T07:20:51;14.13;;;3.20;;
44366;SDS011;30086;57.660;12.000;2023-07-31T07:23:17;9.35;;;3.03;;
44366;SDS011;30086;57.660;12.000;2023-07-31T07:25:44;8.02;;;3.20;;
44366;SDS011;30086;57.660;12.000;2023-07-31T07:28:11;11.70;;;2.85;;
44366;SDS011;30086;57.660;12.000;2023-07-31T07:30:37;14.75;;;3.60;;
44366;SDS011;30086;57.660;12.000;2023-07-31T07:33:03;8.88;;;2.90;;
44366;SDS011;30086;57.660;12.000;2023-07-31T07:35:29;10.52;;;3.42;;
44366;SDS011;30086;57.660;12.000;2023-07-31T07:37:55;10.93;;;4.35;;
44366;SDS011;30086;57.660;12.000;2023-07-31T07:40:21;13.68;;;3.65;;
44366;SDS011;30086;57.660;12.000;2023-07-31T07:42:47;14.98;;;3.95;;
44366;SDS011;30086;57.660;12.000;2023-07-31T07:45:13;10.32;;;3.38;;
44366;SDS011;30086;57.660;12.000;2023-07-31T07:47:40;9.63;;;3.63;;
44366;SDS011;30086;57.660;12.000;2023-07-31T07:50:07;12.10;;;3.10;;
44366;SDS011;30086;57.660;12.000;2023-07-31T07:52:33;15.05;;;3.63;;
44366;SDS011;30086;57.660;12.000;2023-07-31T07:55:01;7.63;;;2.47;;
44366;SDS011;30086;57.660;12.000;2023-07-31T07:57:28;7.15;;;2.35;;
44366;SDS011;30086;57.660;12.000;2023-07-31T07:59:54;7.95;;;2.20;;
44366;SDS011;30086;57.660;12.000;2023-07-31T08:02:21;6.35;;;2.28;;
44366;SDS011;30086;57.660;12.000;2023-07-31T08:04:47;10.73;;;2.70;;
44366;SDS011;30086;57.660;12.000;2023-07-31T08:07:13;9.90;;;2.95;;
44366;SDS011;30086;57.660;12.000;2023-07-31T08:09:39;6.82;;;2.47;;
44366;SDS011;30086;57.660;12.000;2023-07-31T08:12:06;5.65;;;2.20;;
44366;SDS011;30086;57.660;12.000;2023-07-31T08:14:32;11.27;;;3.03;;
44366;SDS011;30086;57.660;12.000;2023-07-31T08:16:58;10.20;;;2.75;;
44366;SDS011;30086;57.660;12.000;2023-07-31T08:19:24;9.52;;;2.72;;
44366;SDS011;30086;57.660;12.000;2023-07-31T08:21:50;7.30;;;2.33;;
44366;SDS011;30086;57.660;12.000;2023-07-31T08:24:16;5.45;;;1.77;;
44366;SDS011;30086;57.660;12.000;2023-07-31T08:26:42;7.20;;;1.98;;
44366;SDS011;30086;57.660;12.000;2023-07-31T08:29:08;6.82;;;2.17;;
44366;SDS011;30086;57.660;12.000;2023-07-31T08:31:35;5.68;;;1.90;;
44366;SDS011;30086;57.660;12.000;2023-07-31T08:34:01;4.30;;;1.50;;
44366;SDS011;30086;57.660;12.000;2023-07-31T08:36:27;4.20;;;1.08;;
44366;SDS011;30086;57.660;12.000;2023-07-31T08:38:53;5.13;;;1.58;;
44366;SDS011;30086;57.660;12.000;2023-07-31T08:41:19;4.70;;;1.25;;
44366;SDS011;30086;57.660;12.000;2023-07-31T08:43:45;1.38;;;0.80;;
44366;SDS011;30086;57.660;12.000;2023-07-31T08:46:11;3.00;;;1.13;;
44366;SDS011;30086;57.660;12.000;2023-07-31T08:48:41;2.55;;;1.00;;
44366;SDS011;30086;57.660;12.000;2023-07-31T08:51:07;2.05;;;1.15;;
44366;SDS011;30086;57.660;12.000;2023-07-31T08:53:33;2.90;;;1.05;;
44366;SDS011;30086;57.660;12.000;2023-07-31T08:55:59;2.08;;;1.08;;
44366;SDS011;30086;57.660;12.000;2023-07-31T08:58:27;1.90;;;1.00;;
44366;SDS011;30086;57.660;12.000;2023-07-31T09:00:56;2.53;;;0.90;;
44366;SDS011;30086;57.660;12.000;2023-07-31T09:03:24;5.32;;;1.17;;
44366;SDS011;30086;57.660;12.000;2023-07-31T09:05:51;4.22;;;0.98;;
44366;SDS011;30086;57.660;12.000;2023-07-31T09:08:21;3.15;;;1.17;;
44366;SDS011;30086;57.660;12.000;2023-07-31T09:10:48;5.03;;;1.50;;
44366;SDS011;30086;57.660;12.000;2023-07-31T09:13:17;3.67;;;1.08;;
44366;SDS011;30086;57.660;12.000;2023-07-31T09:15:44;3.10;;;1.08;;
44366;SDS011;30086;57.660;12.000;2023-07-31T09:18:10;3.08;;;1.13;;
44366;SDS011;30086;57.660;12.000;2023-07-31T09:20:36;3.83;;;1.30;;
44366;SDS011;30086;57.660;12.000;2023-07-31T09:23:07;2.97;;;1.30;;
44366;SDS011;30086;57.660;12.000;2023-07-31T09:25:34;1.80;;;1.00;;
44366;SDS011;30086;57.660;12.000;2023-07-31T09:28:03;2.75;;;1.10;;
44366;SDS011;30086;57.660;12.000;2023-07-31T09:30:30;2.78;;;1.08;;
44366;SDS011;30086;57.660;12.000;2023-07-31T09:33:03;4.63;;;1.25;;
44366;SDS011;30086;57.660;12.000;2023-07-31T09:35:33;1.17;;;0.75;;
44366;SDS011;30086;57.660;12.000;2023-07-31T09:38:01;2.30;;;0.98;;
44366;SDS011;30086;57.660;12.000;2023-07-31T09:40:32;2.20;;;1.20;;
44366;SDS011;30086;57.660;12.000;2023-07-31T09:43:00;2.90;;;1.00;;
44366;SDS011;30086;57.660;12.000;2023-07-31T09:45:27;4.30;;;0.90;;
44366;SDS011;30086;57.660;12.000;2023-07-31T09:47:54;1.73;;;0.90;;
44366;SDS011;30086;57.660;12.000;2023-07-31T09:50:23;4.35;;;1.15;;
44366;SDS011;30086;57.660;12.000;2023-07-31T09:52:50;3.13;;;1.08;;
44366;SDS011;30086;57.660;12.000;2023-07-31T09:55:21;2.28;;;0.95;;
44366;SDS011;30086;57.660;12.000;2023-07-31T09:57:50;1.55;;;0.85;;
44366;SDS011;30086;57.660;12.000;2023-07-31T10:00:17;3.83;;;1.25;;
44366;SDS011;30086;57.660;12.000;2023-07-31T10:02:46;3.60;;;1.08;;
44366;SDS011;30086;57.660;12.000;2023-07-31T10:05:13;3.65;;;1.05;;
44366;SDS011;30086;57.660;12.000;2023-07-31T10:07:42;1.60;;;0.82;;
44366;SDS011;30086;57.660;12.000;2023-07-31T10:10:08;2.47;;;1.00;;
44366;SDS011;30086;57.660;12.000;2023-07-31T10:12:35;2.22;;;0.98;;
44366;SDS011;30086;57.660;12.000;2023-07-31T10:15:02;2.13;;;1.00;;
44366;SDS011;30086;57.660;12.000;2023-07-31T10:17:29;4.70;;;1.08;;
44366;SDS011;30086;57.660;12.000;2023-07-31T10:19:58;2.47;;;0.93;;
44366;SDS011;30086;57.660;12.000;2023-07-31T10:22:26;1.83;;;0.68;;
44366;SDS011;30086;57.660;12.000;2023-07-31T10:24:54;2.55;;;0.73;;
44366;SDS011;30086;57.660;12.000;2023-07-31T10:27:20;2.53;;;0.80;;
44366;SDS011;30086;57.660;12.000;2023-07-31T10:29:48;5.22;;;1.00;;
44366;SDS011;30086;57.660;12.000;2023-07-31T10:32:14;4.70;;;1.17;;
44366;SDS011;30086;57.660;12.000;2023-07-31T10:34:41;3.85;;;0.98;;
44366;SDS011;30086;57.660;12.000;2023-07-31T10:37:24;5.05;;;0.82;;
44366;SDS011;30086;57.660;12.000;2023-07-31T10:42:41;4.57;;;1.00;;
44366;SDS011;30086;57.660;12.000;2023-07-31T10:45:12;2.72;;;0.82;;
44366;SDS011;30086;57.660;12.000;2023-07-31T10:47:45;5.75;;;1.13;;
44366;SDS011;30086;57.660;12.000;2023-07-31T10:52:37;3.20;;;0.80;;
44366;SDS011;30086;57.660;12.000;2023-07-31T10:57:53;4.15;;;0.93;;
44366;SDS011;30086;57.660;12.000;2023-07-31T11:02:58;2.80;;;0.93;;
44366;SDS011;30086;57.660;12.000;2023-07-31T11:08:13;3.45;;;0.90;;
44366;SDS011;30086;57.660;12.000;2023-07-31T11:10:41;3.67;;;0.80;;
44366;SDS011;30086;57.660;12.000;2023-07-31T11:13:09;3.08;;;0.90;;
44366;SDS011;30086;57.660;12.000;2023-07-31T11:15:35;3.53;;;0.90;;
44366;SDS011;30086;57.660;12.000;2023-07-31T11:18:02;3.78;;;1.20;;
44366;SDS011;30086;57.660;12.000;2023-07-31T11:20:29;2.67;;;0.70;;
44366;SDS011;30086;57.660;12.000;2023-07-31T11:23:00;3.75;;;0.90;;
44366;SDS011;30086;57.660;12.000;2023-07-31T11:25:30;3.85;;;0.90;;
44366;SDS011;30086;57.660;12.000;2023-07-31T11:27:57;3.45;;;0.90;;
44366;SDS011;30086;57.660;12.000;2023-07-31T11:30:24;2.65;;;0.90;;
44366;SDS011;30086;57.660;12.000;2023-07-31T11:32:51;2.35;;;1.23;;
44366;SDS011;30086;57.660;12.000;2023-07-31T11:35:19;3.00;;;0.80;;
44366;SDS011;30086;57.660;12.000;2023-07-31T11:37:47;2.40;;;0.82;;
44366;SDS011;30086;57.660;12.000;2023-07-31T11:40:14;2.38;;;0.85;;
44366;SDS011;30086;57.660;12.000;2023-07-31T11:42:44;2.92;;;0.95;;
44366;SDS011;30086;57.660;12.000;2023-07-31T11:45:11;2.92;;;0.95;;
44366;SDS011;30086;57.660;12.000;2023-07-31T11:47:41;4.88;;;1.10;;
44366;SDS011;30086;57.660;12.000;2023-07-31T11:50:09;3.55;;;1.10;;
44366;SDS011;30086;57.660;12.000;2023-07-31T11:52:39;3.65;;;0.90;;
44366;SDS011;30086;57.660;12.000;2023-07-31T11:55:06;1.48;;;0.77;;
44366;SDS011;30086;57.660;12.000;2023-07-31T11:57:40;2.28;;;1.05;;
44366;SDS011;30086;57.660;12.000;2023-07-31T12:00:08;1.85;;;0.77;;
44366;SDS011;30086;57.660;12.000;2023-07-31T12:02:39;4.65;;;0.90;;
44366;SDS011;30086;57.660;12.000;2023-07-31T12:05:06;4.82;;;1.05;;
44366;SDS011;30086;57.660;12.000;2023-07-31T12:07:51;4.25;;;1.17;;
44366;SDS011;30086;57.660;12.000;2023-07-31T12:10:30;2.97;;;0.90;;
44366;SDS011;30086;57.660;12.000;2023-07-31T12:13:01;2.03;;;0.70;;
44366;SDS011;30086;57.660;12.000;2023-07-31T12:18:00;6.35;;;1.13;;
44366;SDS011;30086;57.660;12.000;2023-07-31T12:20:28;3.08;;;1.00;;
44366;SDS011;30086;57.660;12.000;2023-07-31T12:22:58;4.43;;;0.70;;
44366;SDS011;30086;57.660;12.000;2023-07-31T12:25:32;10.35;;;0.90;;
44366;SDS011;30086;57.660;12.000;2023-07-31T12:28:07;2.92;;;0.95;;
44366;SDS011;30086;57.660;12.000;2023-07-31T12:30:45;4.90;;;1.25;;
44366;SDS011;30086;57.660;12.000;2023-07-31T12:33:14;2.88;;;0.95;;
44366;SDS011;30086;57.660;12.000;2023-07-31T12:35:42;3.05;;;0.95;;
44366;SDS011;30086;57.660;12.000;2023-07-31T12:38:09;5.78;;;1.30;;
44366;SDS011;30086;57.660;12.000;2023-07-31T12:40:37;5.35;;;1.02;;
44366;SDS011;30086;57.660;12.000;2023-07-31T12:43:08;4.40;;;0.90;;
44366;SDS011;30086;57.660;12.000;2023-07-31T12:45:36;5.20;;;1.30;;
44366;SDS011;30086;57.660;12.000;2023-07-31T12:48:02;5.43;;;1.30;;
44366;SDS011;30086;57.660;12.000;2023-07-31T12:50:28;4.68;;;1.42;;
44366;SDS011;30086;57.660;12.000;2023-07-31T12:52:56;5.70;;;1.70;;
44366;SDS011;30086;57.660;12.000;2023-07-31T12:55:25;4.45;;;1.13;;
44366;SDS011;30086;57.660;12.000;2023-07-31T12:57:54;6.65;;;0.95;;
44366;SDS011;30086;57.660;12.000;2023-07-31T13:00:21;4.63;;;1.35;;
44366;SDS011;30086;57.660;12.000;2023-07-31T13:02:47;3.13;;;1.23;;
44366;SDS011;30086;57.660;12.000;2023-07-31T13:05:14;6.20;;;1.30;;
44366;SDS011;30086;57.660;12.000;2023-07-31T13:07:41;2.95;;;0.88;;
44366;SDS011;30086;57.660;12.000;2023-07-31T13:10:08;2.72;;;1.10;;
44366;SDS011;30086;57.660;12.000;2023-07-31T13:12:34;3.30;;;1.15;;
44366;SDS011;30086;57.660;12.000;2023-07-31T13:15:00;5.25;;;1.17;;
44366;SDS011;30086;57.660;12.000;2023-07-31T13:17:26;7.18;;;1.20;;
44366;SDS011;30086;57.660;12.000;2023-07-31T13:19:52;2.90;;;1.23;;
44366;SDS011;30086;57.660;12.000;2023-07-31T13:22:20;4.68;;;1.13;;
44366;SDS011;30086;57.660;12.000;2023-07-31T13:24:47;5.55;;;1.30;;
44366;SDS011;30086;57.660;12.000;2023-07-31T13:27:17;4.60;;;1.42;;
44366;SDS011;30086;57.660;12.000;2023-07-31T13:29:45;5.13;;;1.10;;
44366;SDS011;30086;57.660;12.000;2023-07-31T13:32:11;7.55;;;1.80;;
44366;SDS011;30086;57.660;12.000;2023-07-31T13:34:37;6.13;;;1.23;;
44366;SDS011;30086;57.660;12.000;2023-07-31T13:37:04;4.78;;;1.48;;
44366;SDS011;30086;57.660;12.000;2023-07-31T13:39:31;6.35;;;1.55;;
44366;SDS011;30086;57.660;12.000;2023-07-31T13:41:58;9.00;;;1.73;;
44366;SDS011;30086;57.660;12.000;2023-07-31T13:44:24;4.35;;;1.40;;
44366;SDS011;30086;57.660;12.000;2023-07-31T13:46:52;6.55;;;1.75;;
44366;SDS011;30086;57.660;12.000;2023-07-31T13:49:18;4.32;;;1.20;;
44366;SDS011;30086;57.660;12.000;2023-07-31T13:51:45;6.68;;;1.30;;
44366;SDS011;30086;57.660;12.000;2023-07-31T13:54:12;6.97;;;1.55;;
44366;SDS011;30086;57.660;12.000;2023-07-31T13:56:42;6.30;;;1.83;;
44366;SDS011;30086;57.660;12.000;2023-07-31T13:59:11;5.40;;;1.25;;
44366;SDS011;30086;57.660;12.000;2023-07-31T14:01:40;6.40;;;1.73;;
44366;SDS011;30086;57.660;12.000;2023-07-31T14:04:06;6.00;;;1.65;;
44366;SDS011;30086;57.660;12.000;2023-07-31T14:06:33;7.70;;;1.83;;
44366;SDS011;30086;57.660;12.000;2023-07-31T14:08:59;11.63;;;2.85;;
44366;SDS011;30086;57.660;12.000;2023-07-31T14:11:26;5.07;;;2.15;;
44366;SDS011;30086;57.660;12.000;2023-07-31T14:13:52;10.30;;;2.08;;
44366;SDS011;30086;57.660;12.000;2023-07-31T14:16:18;8.30;;;1.90;;
44366;SDS011;30086;57.660;12.000;2023-07-31T14:18:44;9.30;;;1.90;;
44366;SDS011;30086;57.660;12.000;2023-07-31T14:21:11;12.60;;;2.22;;
44366;SDS011;30086;57.660;12.000;2023-07-31T14:23:38;10.43;;;2.28;;
44366;SDS011;30086;57.660;12.000;2023-07-31T14:26:04;7.63;;;2.15;;
44366;SDS011;30086;57.660;12.000;2023-07-31T14:28:31;8.77;;;2.00;;
44366;SDS011;30086;57.660;12.000;2023-07-31T14:30:57;9.20;;;2.40;;
44366;SDS011;30086;57.660;12.000;2023-07-31T14:33:24;6.88;;;2.40;;
44366;SDS011;30086;57.660;12.000;2023-07-31T14:35:50;9.48;;;1.90;;
44366;SDS011;30086;57.660;12.000;2023-07-31T14:38:16;9.63;;;2.13;;
44366;SDS011;30086;57.660;12.000;2023-07-31T14:40:42;8.05;;;1.70;;
44366;SDS011;30086;57.660;12.000;2023-07-31T14:43:08;8.35;;;2.15;;
44366;SDS011;30086;57.660;12.000;2023-07-31T14:45:35;5.60;;;1.70;;
44366;SDS011;30086;57.660;12.000;2023-07-31T14:48:01;8.13;;;1.98;;
44366;SDS011;30086;57.660;12.000;2023-07-31T14:50:28;7.32;;;2.13;;
44366;SDS011;30086;57.660;12.000;2023-07-31T14:52:54;6.30;;;1.45;;